Lattasburg, Ohio
Current Conditions -  °F | °C
As of 1:05 PM on Thursday 23 Oct 2014 (Local Time) from KBJJ Reporting Station
Broken Clouds Broken Clouds  
Wind Chill: 55°   Ceiling: 2400
Heat Index: 55°   Visibility: 10mi
Dew Point: 43°   Wind: 13mph
Humidity: 64%   Direction: 330°NNW
Pressure: 30.19"   Gusts: 16mph
Location:  40.9441°N, 82.1006°W
Report Text: KBJJ 231705Z AUTO 33011G14KT 10SM BKN024 13/06 A3019 RMK AO2 T01280061 TSNO
Loading
Personal Weather Stations






























Interactive Weather Map
Tropical Storm Tracking
New forecast layout! Learn more

10-Day Weather Forecast

Advertisements
Track Severe Weather on mobile